sensor_id;sensor_type;location;lat;lon;timestamp;temperature;humidity
22838;DHT22;11585;51.450;-0.240;2022-12-31T00:01:56;12.30;99.90
22838;DHT22;11585;51.450;-0.240;2022-12-31T00:07:43;12.40;99.90
22838;DHT22;11585;51.450;-0.240;2022-12-31T00:13:36;12.40;99.90
22838;DHT22;11585;51.450;-0.240;2022-12-31T00:19:24;12.40;99.90
22838;DHT22;11585;51.450;-0.240;2022-12-31T00:21:50;12.40;99.90
22838;DHT22;11585;51.450;-0.240;2022-12-31T00:28:16;12.40;99.90
22838;DHT22;11585;51.450;-0.240;2022-12-31T00:30:47;12.50;99.90
22838;DHT22;11585;51.450;-0.240;2022-12-31T00:33:18;12.00;99.90
22838;DHT22;11585;51.450;-0.240;2022-12-31T00:39:09;12.40;99.90
22838;DHT22;11585;51.450;-0.240;2022-12-31T00:41:38;12.40;99.90
22838;DHT22;11585;51.450;-0.240;2022-12-31T00:44:11;12.40;99.90
22838;DHT22;11585;51.450;-0.240;2022-12-31T00:46:41;12.40;99.90
22838;DHT22;11585;51.450;-0.240;2022-12-31T00:49:06;12.40;99.90
22838;DHT22;11585;51.450;-0.240;2022-12-31T00:51:32;12.40;99.90
22838;DHT22;11585;51.450;-0.240;2022-12-31T00:53:58;12.40;99.90
22838;DHT22;11585;51.450;-0.240;2022-12-31T00:59:46;12.40;99.90
22838;DHT22;11585;51.450;-0.240;2022-12-31T01:05:35;12.40;99.90
22838;DHT22;11585;51.450;-0.240;2022-12-31T01:08:02;12.40;99.90
22838;DHT22;11585;51.450;-0.240;2022-12-31T01:10:28;12.30;99.90
22838;DHT22;11585;51.450;-0.240;2022-12-31T01:13:15;12.50;99.90
22838;DHT22;11585;51.450;-0.240;2022-12-31T01:15:42;12.40;99.90
22838;DHT22;11585;51.450;-0.240;2022-12-31T01:18:10;12.40;99.90
22838;DHT22;11585;51.450;-0.240;2022-12-31T01:20:38;12.30;99.90
22838;DHT22;11585;51.450;-0.240;2022-12-31T01:23:06;12.40;99.90
22838;DHT22;11585;51.450;-0.240;2022-12-31T01:28:54;12.50;99.90
22838;DHT22;11585;51.450;-0.240;2022-12-31T01:34:42;12.50;99.90
22838;DHT22;11585;51.450;-0.240;2022-12-31T01:37:08;12.40;99.90
22838;DHT22;11585;51.450;-0.240;2022-12-31T01:39:34;12.40;99.90
22838;DHT22;11585;51.450;-0.240;2022-12-31T01:42:02;12.50;99.90
22838;DHT22;11585;51.450;-0.240;2022-12-31T01:47:57;12.40;99.90
22838;DHT22;11585;51.450;-0.240;2022-12-31T01:50:32;12.40;99.90
22838;DHT22;11585;51.450;-0.240;2022-12-31T01:53:01;12.40;99.90
22838;DHT22;11585;51.450;-0.240;2022-12-31T01:58:53;12.10;99.90
22838;DHT22;11585;51.450;-0.240;2022-12-31T02:01:28;12.40;99.90
22838;DHT22;11585;51.450;-0.240;2022-12-31T02:03:55;12.40;99.90
22838;DHT22;11585;51.450;-0.240;2022-12-31T02:09:30;12.40;99.90
22838;DHT22;11585;51.450;-0.240;2022-12-31T02:15:25;12.40;99.90
22838;DHT22;11585;51.450;-0.240;2022-12-31T02:18:05;12.40;99.90
22838;DHT22;11585;51.450;-0.240;2022-12-31T02:33:15;12.40;99.90
22838;DHT22;11585;51.450;-0.240;2022-12-31T02:35:18;12.40;99.90
22838;DHT22;11585;51.450;-0.240;2022-12-31T02:37:50;12.40;99.90
22838;DHT22;11585;51.450;-0.240;2022-12-31T02:40:19;12.40;99.90
22838;DHT22;11585;51.450;-0.240;2022-12-31T02:42:45;11.70;99.90
22838;DHT22;11585;51.450;-0.240;2022-12-31T02:51:29;12.40;99.90
22838;DHT22;11585;51.450;-0.240;2022-12-31T03:02:50;12.40;99.90
22838;DHT22;11585;51.450;-0.240;2022-12-31T03:08:41;12.10;99.90
22838;DHT22;11585;51.450;-0.240;2022-12-31T03:11:26;12.40;99.90
22838;DHT22;11585;51.450;-0.240;2022-12-31T03:14:13;12.40;99.90
22838;DHT22;11585;51.450;-0.240;2022-12-31T03:16:39;12.30;99.90
22838;DHT22;11585;51.450;-0.240;2022-12-31T03:19:05;12.40;99.90
22838;DHT22;11585;51.450;-0.240;2022-12-31T03:21:52;12.40;99.90
22838;DHT22;11585;51.450;-0.240;2022-12-31T03:24:36;12.40;99.90
22838;DHT22;11585;51.450;-0.240;2022-12-31T03:27:54;12.40;99.90
22838;DHT22;11585;51.450;-0.240;2022-12-31T03:30:15;12.30;99.90
22838;DHT22;11585;51.450;-0.240;2022-12-31T03:32:47;12.40;99.90
22838;DHT22;11585;51.450;-0.240;2022-12-31T03:35:17;12.40;99.90
22838;DHT22;11585;51.450;-0.240;2022-12-31T03:37:48;12.40;99.90
22838;DHT22;11585;51.450;-0.240;2022-12-31T03:40:15;12.40;99.90
22838;DHT22;11585;51.450;-0.240;2022-12-31T03:42:46;12.40;99.90
22838;DHT22;11585;51.450;-0.240;2022-12-31T03:45:15;12.40;99.90
22838;DHT22;11585;51.450;-0.240;2022-12-31T03:47:55;12.50;99.90
22838;DHT22;11585;51.450;-0.240;2022-12-31T03:50:21;12.40;99.90
22838;DHT22;11585;51.450;-0.240;2022-12-31T03:52:46;12.40;99.90
22838;DHT22;11585;51.450;-0.240;2022-12-31T03:55:33;12.40;99.90
22838;DHT22;11585;51.450;-0.240;2022-12-31T03:58:02;12.50;99.90
22838;DHT22;11585;51.450;-0.240;2022-12-31T04:00:28;12.40;99.90
22838;DHT22;11585;51.450;-0.240;2022-12-31T04:02:54;11.70;99.90
22838;DHT22;11585;51.450;-0.240;2022-12-31T04:05:22;12.40;99.90
22838;DHT22;11585;51.450;-0.240;2022-12-31T04:07:51;12.20;99.90
22838;DHT22;11585;51.450;-0.240;2022-12-31T04:10:17;12.40;99.90
22838;DHT22;11585;51.450;-0.240;2022-12-31T04:12:46;12.50;99.90
22838;DHT22;11585;51.450;-0.240;2022-12-31T04:18:34;12.40;99.90
22838;DHT22;11585;51.450;-0.240;2022-12-31T04:21:01;12.40;99.90
22838;DHT22;11585;51.450;-0.240;2022-12-31T04:23:27;12.50;99.90
22838;DHT22;11585;51.450;-0.240;2022-12-31T04:29:34;12.50;99.90
22838;DHT22;11585;51.450;-0.240;2022-12-31T04:32:00;12.50;99.90
22838;DHT22;11585;51.450;-0.240;2022-12-31T04:37:48;12.50;99.90
22838;DHT22;11585;51.450;-0.240;2022-12-31T04:40:14;12.70;99.90
22838;DHT22;11585;51.450;-0.240;2022-12-31T04:42:39;12.50;99.90
22838;DHT22;11585;51.450;-0.240;2022-12-31T04:48:28;12.60;99.90
22838;DHT22;11585;51.450;-0.240;2022-12-31T04:50:53;12.50;99.90
22838;DHT22;11585;51.450;-0.240;2022-12-31T04:53:19;12.50;99.90
22838;DHT22;11585;51.450;-0.240;2022-12-31T04:55:45;12.60;99.90
22838;DHT22;11585;51.450;-0.240;2022-12-31T04:58:10;12.60;99.90
22838;DHT22;11585;51.450;-0.240;2022-12-31T05:00:36;12.60;99.90
22838;DHT22;11585;51.450;-0.240;2022-12-31T05:03:02;12.60;99.90
22838;DHT22;11585;51.450;-0.240;2022-12-31T05:15:22;12.70;99.90
22838;DHT22;11585;51.450;-0.240;2022-12-31T05:17:47;12.70;99.90
22838;DHT22;11585;51.450;-0.240;2022-12-31T05:20:13;12.70;99.90
22838;DHT22;11585;51.450;-0.240;2022-12-31T05:22:42;12.70;99.90
22838;DHT22;11585;51.450;-0.240;2022-12-31T05:25:27;12.80;99.90
22838;DHT22;11585;51.450;-0.240;2022-12-31T05:27:52;12.80;99.90
22838;DHT22;11585;51.450;-0.240;2022-12-31T05:30:18;12.90;99.90
22838;DHT22;11585;51.450;-0.240;2022-12-31T05:32:44;12.90;99.90
22838;DHT22;11585;51.450;-0.240;2022-12-31T05:35:10;12.90;99.90
22838;DHT22;11585;51.450;-0.240;2022-12-31T05:37:39;12.90;99.90
22838;DHT22;11585;51.450;-0.240;2022-12-31T05:40:05;13.00;99.90
22838;DHT22;11585;51.450;-0.240;2022-12-31T05:42:31;13.00;99.90
22838;DHT22;11585;51.450;-0.240;2022-12-31T05:48:19;13.10;99.90
22838;DHT22;11585;51.450;-0.240;2022-12-31T05:50:45;13.10;99.90
22838;DHT22;11585;51.450;-0.240;2022-12-31T05:53:20;13.10;99.90
22838;DHT22;11585;51.450;-0.240;2022-12-31T05:59:07;13.20;99.90
22838;DHT22;11585;51.450;-0.240;2022-12-31T06:04:55;13.30;99.90
22838;DHT22;11585;51.450;-0.240;2022-12-31T06:07:21;13.30;99.90
22838;DHT22;11585;51.450;-0.240;2022-12-31T06:09:46;13.30;99.90
22838;DHT22;11585;51.450;-0.240;2022-12-31T06:12:13;13.40;99.90
22838;DHT22;11585;51.450;-0.240;2022-12-31T06:18:01;13.40;99.90
22838;DHT22;11585;51.450;-0.240;2022-12-31T06:20:26;13.40;99.90
22838;DHT22;11585;51.450;-0.240;2022-12-31T06:22:52;13.50;99.90
22838;DHT22;11585;51.450;-0.240;2022-12-31T06:28:41;13.50;99.90
22838;DHT22;11585;51.450;-0.240;2022-12-31T06:31:11;13.50;99.90
22838;DHT22;11585;51.450;-0.240;2022-12-31T06:33:37;13.50;99.90
22838;DHT22;11585;51.450;-0.240;2022-12-31T06:39:28;13.60;99.90
22838;DHT22;11585;51.450;-0.240;2022-12-31T06:41:54;13.60;99.90
22838;DHT22;11585;51.450;-0.240;2022-12-31T06:44:39;13.60;99.90
22838;DHT22;11585;51.450;-0.240;2022-12-31T06:47:11;14.50;99.90
22838;DHT22;11585;51.450;-0.240;2022-12-31T06:49:42;13.70;99.90
22838;DHT22;11585;51.450;-0.240;2022-12-31T06:52:08;13.70;99.90
22838;DHT22;11585;51.450;-0.240;2022-12-31T06:57:56;13.70;99.90
22838;DHT22;11585;51.450;-0.240;2022-12-31T07:00:22;13.70;99.90
22838;DHT22;11585;51.450;-0.240;2022-12-31T07:03:18;13.70;99.90
22838;DHT22;11585;51.450;-0.240;2022-12-31T07:21:13;13.80;99.90
22838;DHT22;11585;51.450;-0.240;2022-12-31T07:24:23;13.80;99.90
22838;DHT22;11585;51.450;-0.240;2022-12-31T07:33:45;13.90;99.90
22838;DHT22;11585;51.450;-0.240;2022-12-31T07:43:14;13.90;99.90
22838;DHT22;11585;51.450;-0.240;2022-12-31T07:49:23;13.90;99.90
22838;DHT22;11585;51.450;-0.240;2022-12-31T07:51:50;13.90;99.90
22838;DHT22;11585;51.450;-0.240;2022-12-31T07:54:16;13.90;99.90
22838;DHT22;11585;51.450;-0.240;2022-12-31T07:56:42;13.90;99.90
22838;DHT22;11585;51.450;-0.240;2022-12-31T08:14:00;14.00;99.90
22838;DHT22;11585;51.450;-0.240;2022-12-31T08:19:48;13.30;99.90
22838;DHT22;11585;51.450;-0.240;2022-12-31T08:25:55;14.00;99.90
22838;DHT22;11585;51.450;-0.240;2022-12-31T08:31:09;14.00;99.90
22838;DHT22;11585;51.450;-0.240;2022-12-31T08:34:04;14.00;99.90
22838;DHT22;11585;51.450;-0.240;2022-12-31T08:42:43;14.00;99.90
22838;DHT22;11585;51.450;-0.240;2022-12-31T08:48:45;14.10;99.90
22838;DHT22;11585;51.450;-0.240;2022-12-31T08:51:18;14.00;99.90
22838;DHT22;11585;51.450;-0.240;2022-12-31T08:53:44;14.10;99.90
22838;DHT22;11585;51.450;-0.240;2022-12-31T09:08:15;14.10;99.90
22838;DHT22;11585;51.450;-0.240;2022-12-31T09:11:17;14.10;99.90
22838;DHT22;11585;51.450;-0.240;2022-12-31T09:14:01;14.10;99.90
22838;DHT22;11585;51.450;-0.240;2022-12-31T09:19:52;14.10;99.90
22838;DHT22;11585;51.450;-0.240;2022-12-31T09:22:18;13.70;99.90
22838;DHT22;11585;51.450;-0.240;2022-12-31T09:24:49;14.10;99.90
22838;DHT22;11585;51.450;-0.240;2022-12-31T09:27:26;14.10;99.90
22838;DHT22;11585;51.450;-0.240;2022-12-31T09:30:04;14.10;99.90
22838;DHT22;11585;51.450;-0.240;2022-12-31T09:39:15;14.10;99.90
22838;DHT22;11585;51.450;-0.240;2022-12-31T09:51:16;14.10;99.90
22838;DHT22;11585;51.450;-0.240;2022-12-31T10:02:46;14.10;99.90
22838;DHT22;11585;51.450;-0.240;2022-12-31T10:14:29;14.10;99.90
22838;DHT22;11585;51.450;-0.240;2022-12-31T10:17:10;14.20;99.90
22838;DHT22;11585;51.450;-0.240;2022-12-31T10:19:44;14.20;99.90
22838;DHT22;11585;51.450;-0.240;2022-12-31T10:29:00;14.20;99.90
22838;DHT22;11585;51.450;-0.240;2022-12-31T10:35:11;14.10;99.90
22838;DHT22;11585;51.450;-0.240;2022-12-31T10:46:55;14.10;99.90
22838;DHT22;11585;51.450;-0.240;2022-12-31T10:58:08;14.10;99.90
22838;DHT22;11585;51.450;-0.240;2022-12-31T11:09:09;14.10;99.90
22838;DHT22;11585;51.450;-0.240;2022-12-31T11:17:44;14.10;99.90
22838;DHT22;11585;51.450;-0.240;2022-12-31T11:23:15;14.10;99.90
22838;DHT22;11585;51.450;-0.240;2022-12-31T11:26:12;14.10;99.90
22838;DHT22;11585;51.450;-0.240;2022-12-31T11:28:58;13.40;99.90
22838;DHT22;11585;51.450;-0.240;2022-12-31T11:31:41;14.10;99.90
22838;DHT22;11585;51.450;-0.240;2022-12-31T11:43:29;14.10;99.90
22838;DHT22;11585;51.450;-0.240;2022-12-31T11:54:48;14.10;99.90
22838;DHT22;11585;51.450;-0.240;2022-12-31T11:57:37;14.10;99.90
22838;DHT22;11585;51.450;-0.240;2022-12-31T12:00:18;14.10;99.90
22838;DHT22;11585;51.450;-0.240;2022-12-31T12:03:04;14.10;99.90
22838;DHT22;11585;51.450;-0.240;2022-12-31T12:05:31;14.10;99.90
22838;DHT22;11585;51.450;-0.240;2022-12-31T12:07:58;14.50;99.90
22838;DHT22;11585;51.450;-0.240;2022-12-31T12:10:29;14.10;99.90
22838;DHT22;11585;51.450;-0.240;2022-12-31T12:12:56;14.10;99.90
22838;DHT22;11585;51.450;-0.240;2022-12-31T12:15:26;14.00;99.90
22838;DHT22;11585;51.450;-0.240;2022-12-31T12:17:55;14.00;99.90
22838;DHT22;11585;51.450;-0.240;2022-12-31T12:20:41;14.00;99.90
22838;DHT22;11585;51.450;-0.240;2022-12-31T12:23:26;14.00;99.90
22838;DHT22;11585;51.450;-0.240;2022-12-31T12:25:52;14.10;99.90
22838;DHT22;11585;51.450;-0.240;2022-12-31T12:28:26;14.00;99.90
22838;DHT22;11585;51.450;-0.240;2022-12-31T12:31:19;14.00;99.90
22838;DHT22;11585;51.450;-0.240;2022-12-31T12:33:45;14.00;99.90
22838;DHT22;11585;51.450;-0.240;2022-12-31T12:36:13;14.00;99.90
22838;DHT22;11585;51.450;-0.240;2022-12-31T12:38:41;14.00;99.90
22838;DHT22;11585;51.450;-0.240;2022-12-31T12:41:18;14.00;99.90
22838;DHT22;11585;51.450;-0.240;2022-12-31T12:44:00;14.00;99.90
22838;DHT22;11585;51.450;-0.240;2022-12-31T12:46:32;14.00;99.90
22838;DHT22;11585;51.450;-0.240;2022-12-31T12:48:58;14.00;99.90
22838;DHT22;11585;51.450;-0.240;2022-12-31T12:51:45;14.00;99.90
22838;DHT22;11585;51.450;-0.240;2022-12-31T13:15:57;13.90;99.90
22838;DHT22;11585;51.450;-0.240;2022-12-31T13:21:39;14.00;99.90
22838;DHT22;11585;51.450;-0.240;2022-12-31T13:27:33;13.90;99.90
22838;DHT22;11585;51.450;-0.240;2022-12-31T13:30:01;13.90;99.90
22838;DHT22;11585;51.450;-0.240;2022-12-31T13:32:41;13.90;99.90
22838;DHT22;11585;51.450;-0.240;2022-12-31T13:35:26;13.90;99.90
22838;DHT22;11585;51.450;-0.240;2022-12-31T13:38:17;13.90;99.90
22838;DHT22;11585;51.450;-0.240;2022-12-31T13:49:25;13.90;99.90
22838;DHT22;11585;51.450;-0.240;2022-12-31T13:54:42;13.00;99.90
22838;DHT22;11585;51.450;-0.240;2022-12-31T14:00:23;13.90;99.90
22838;DHT22;11585;51.450;-0.240;2022-12-31T14:08:20;13.90;99.90
22838;DHT22;11585;51.450;-0.240;2022-12-31T14:24:15;13.80;99.90
22838;DHT22;11585;51.450;-0.240;2022-12-31T14:26:50;13.80;99.90
22838;DHT22;11585;51.450;-0.240;2022-12-31T14:35:21;13.80;99.90
22838;DHT22;11585;51.450;-0.240;2022-12-31T14:46:27;13.80;99.90
22838;DHT22;11585;51.450;-0.240;2022-12-31T14:52:33;13.70;99.90
22838;DHT22;11585;51.450;-0.240;2022-12-31T14:57:36;13.70;99.90
22838;DHT22;11585;51.450;-0.240;2022-12-31T15:00:26;13.70;99.90
22838;DHT22;11585;51.450;-0.240;2022-12-31T15:05:50;13.70;99.90
22838;DHT22;11585;51.450;-0.240;2022-12-31T15:11:39;13.10;99.90
22838;DHT22;11585;51.450;-0.240;2022-12-31T15:14:17;13.80;99.90
22838;DHT22;11585;51.450;-0.240;2022-12-31T15:20:05;13.70;99.90
22838;DHT22;11585;51.450;-0.240;2022-12-31T15:22:45;13.70;99.90
22838;DHT22;11585;51.450;-0.240;2022-12-31T15:28:31;13.60;99.90
22838;DHT22;11585;51.450;-0.240;2022-12-31T15:31:17;13.50;99.90
22838;DHT22;11585;51.450;-0.240;2022-12-31T15:34:02;13.60;99.90
22838;DHT22;11585;51.450;-0.240;2022-12-31T15:36:32;12.90;99.90
22838;DHT22;11585;51.450;-0.240;2022-12-31T15:41:38;13.60;99.90
22838;DHT22;11585;51.450;-0.240;2022-12-31T15:46:54;14.30;99.90
22838;DHT22;11585;51.450;-0.240;2022-12-31T15:49:22;13.60;99.90
22838;DHT22;11585;51.450;-0.240;2022-12-31T15:51:59;13.60;99.90
22838;DHT22;11585;51.450;-0.240;2022-12-31T15:54:45;13.60;99.90
22838;DHT22;11585;51.450;-0.240;2022-12-31T15:57:23;13.60;99.90
22838;DHT22;11585;51.450;-0.240;2022-12-31T15:59:57;13.50;99.90
22838;DHT22;11585;51.450;-0.240;2022-12-31T16:02:24;13.50;99.90
22838;DHT22;11585;51.450;-0.240;2022-12-31T16:04:51;13.50;99.90
22838;DHT22;11585;51.450;-0.240;2022-12-31T16:07:17;13.50;99.90
22838;DHT22;11585;51.450;-0.240;2022-12-31T16:09:50;13.50;99.90
22838;DHT22;11585;51.450;-0.240;2022-12-31T16:12:27;13.50;99.90
22838;DHT22;11585;51.450;-0.240;2022-12-31T16:14:57;13.50;99.90
22838;DHT22;11585;51.450;-0.240;2022-12-31T16:17:35;13.50;99.90
22838;DHT22;11585;51.450;-0.240;2022-12-31T16:22:52;13.50;99.90
22838;DHT22;11585;51.450;-0.240;2022-12-31T16:25:20;13.50;99.90
22838;DHT22;11585;51.450;-0.240;2022-12-31T16:27:48;13.50;99.90
22838;DHT22;11585;51.450;-0.240;2022-12-31T16:30:20;13.50;99.90
22838;DHT22;11585;51.450;-0.240;2022-12-31T16:32:48;13.50;99.90
22838;DHT22;11585;51.450;-0.240;2022-12-31T16:35:21;13.50;99.90
22838;DHT22;11585;51.450;-0.240;2022-12-31T16:37:47;13.50;99.90
22838;DHT22;11585;51.450;-0.240;2022-12-31T16:40:21;13.40;99.90
22838;DHT22;11585;51.450;-0.240;2022-12-31T16:42:48;13.50;99.90
22838;DHT22;11585;51.450;-0.240;2022-12-31T16:45:37;13.50;99.90
22838;DHT22;11585;51.450;-0.240;2022-12-31T16:48:09;13.50;99.90
22838;DHT22;11585;51.450;-0.240;2022-12-31T16:50:46;13.40;99.90
22838;DHT22;11585;51.450;-0.240;2022-12-31T16:53:16;13.40;99.90
22838;DHT22;11585;51.450;-0.240;2022-12-31T16:55:43;13.40;99.90
22838;DHT22;11585;51.450;-0.240;2022-12-31T16:58:19;13.40;99.90
22838;DHT22;11585;51.450;-0.240;2022-12-31T17:00:47;13.40;99.90
22838;DHT22;11585;51.450;-0.240;2022-12-31T17:03:24;13.40;99.90
22838;DHT22;11585;51.450;-0.240;2022-12-31T17:06:23;13.50;99.90
22838;DHT22;11585;51.450;-0.240;2022-12-31T17:11:27;13.40;99.90
22838;DHT22;11585;51.450;-0.240;2022-12-31T17:19:43;13.40;99.90
22838;DHT22;11585;51.450;-0.240;2022-12-31T17:22:28;13.40;99.90
22838;DHT22;11585;51.450;-0.240;2022-12-31T17:25:16;13.40;99.90
22838;DHT22;11585;51.450;-0.240;2022-12-31T17:27:54;13.40;99.90
22838;DHT22;11585;51.450;-0.240;2022-12-31T17:30:34;13.40;99.90
22838;DHT22;11585;51.450;-0.240;2022-12-31T17:33:04;13.40;99.90
22838;DHT22;11585;51.450;-0.240;2022-12-31T17:36:12;13.40;99.90
22838;DHT22;11585;51.450;-0.240;2022-12-31T17:38:38;13.40;99.90
22838;DHT22;11585;51.450;-0.240;2022-12-31T17:43:32;13.40;99.90
22838;DHT22;11585;51.450;-0.240;2022-12-31T17:46:00;13.40;99.90
22838;DHT22;11585;51.450;-0.240;2022-12-31T17:48:27;13.40;99.90
22838;DHT22;11585;51.450;-0.240;2022-12-31T17:50:57;13.40;99.90
22838;DHT22;11585;51.450;-0.240;2022-12-31T17:53:24;13.50;99.90
22838;DHT22;11585;51.450;-0.240;2022-12-31T17:55:51;13.50;99.90
22838;DHT22;11585;51.450;-0.240;2022-12-31T17:58:46;13.40;99.90
22838;DHT22;11585;51.450;-0.240;2022-12-31T18:01:16;13.40;99.90
22838;DHT22;11585;51.450;-0.240;2022-12-31T18:03:42;13.50;99.90
22838;DHT22;11585;51.450;-0.240;2022-12-31T18:06:11;13.50;99.90
22838;DHT22;11585;51.450;-0.240;2022-12-31T18:08:37;13.50;99.90
22838;DHT22;11585;51.450;-0.240;2022-12-31T18:11:02;13.50;99.90
22838;DHT22;11585;51.450;-0.240;2022-12-31T18:13:28;12.70;99.90
22838;DHT22;11585;51.450;-0.240;2022-12-31T18:15:56;13.40;99.90
22838;DHT22;11585;51.450;-0.240;2022-12-31T18:18:24;13.30;99.90
22838;DHT22;11585;51.450;-0.240;2022-12-31T18:20:56;13.50;99.90
22838;DHT22;11585;51.450;-0.240;2022-12-31T18:23:27;13.10;99.90
22838;DHT22;11585;51.450;-0.240;2022-12-31T18:25:53;13.50;99.90
22838;DHT22;11585;51.450;-0.240;2022-12-31T18:28:19;13.40;99.90
22838;DHT22;11585;51.450;-0.240;2022-12-31T18:30:45;13.50;99.90
22838;DHT22;11585;51.450;-0.240;2022-12-31T18:33:12;13.50;99.90
22838;DHT22;11585;51.450;-0.240;2022-12-31T18:35:40;13.50;99.90
22838;DHT22;11585;51.450;-0.240;2022-12-31T18:38:14;13.50;99.90
22838;DHT22;11585;51.450;-0.240;2022-12-31T18:40:54;13.50;99.90
22838;DHT22;11585;51.450;-0.240;2022-12-31T18:43:21;13.50;99.90
22838;DHT22;11585;51.450;-0.240;2022-12-31T18:45:48;13.40;99.90
22838;DHT22;11585;51.450;-0.240;2022-12-31T18:48:14;13.50;99.90
22838;DHT22;11585;51.450;-0.240;2022-12-31T18:50:41;13.50;99.90
22838;DHT22;11585;51.450;-0.240;2022-12-31T18:53:08;13.50;99.90
22838;DHT22;11585;51.450;-0.240;2022-12-31T18:55:40;13.10;99.90
22838;DHT22;11585;51.450;-0.240;2022-12-31T18:58:08;13.50;99.90
22838;DHT22;11585;51.450;-0.240;2022-12-31T19:00:35;13.50;99.90
22838;DHT22;11585;51.450;-0.240;2022-12-31T19:03:01;13.60;99.90
22838;DHT22;11585;51.450;-0.240;2022-12-31T19:05:30;13.60;99.90
22838;DHT22;11585;51.450;-0.240;2022-12-31T19:07:57;13.60;99.90
22838;DHT22;11585;51.450;-0.240;2022-12-31T19:10:24;13.60;99.90
22838;DHT22;11585;51.450;-0.240;2022-12-31T19:12:50;13.40;99.90
22838;DHT22;11585;51.450;-0.240;2022-12-31T19:15:23;13.60;99.90
22838;DHT22;11585;51.450;-0.240;2022-12-31T19:17:49;13.60;99.90
22838;DHT22;11585;51.450;-0.240;2022-12-31T19:20:15;13.60;99.90
22838;DHT22;11585;51.450;-0.240;2022-12-31T19:22:41;13.60;99.90
22838;DHT22;11585;51.450;-0.240;2022-12-31T19:25:20;13.60;99.90
22838;DHT22;11585;51.450;-0.240;2022-12-31T19:27:46;13.60;99.90
22838;DHT22;11585;51.450;-0.240;2022-12-31T19:30:19;13.60;99.90
22838;DHT22;11585;51.450;-0.240;2022-12-31T19:32:45;13.70;99.90
22838;DHT22;11585;51.450;-0.240;2022-12-31T19:35:13;13.20;99.90
22838;DHT22;11585;51.450;-0.240;2022-12-31T19:37:40;13.70;99.90
22838;DHT22;11585;51.450;-0.240;2022-12-31T19:40:15;13.70;99.90
22838;DHT22;11585;51.450;-0.240;2022-12-31T19:42:42;13.70;99.90
22838;DHT22;11585;51.450;-0.240;2022-12-31T19:45:27;13.70;99.90
22838;DHT22;11585;51.450;-0.240;2022-12-31T19:47:57;13.70;99.90
22838;DHT22;11585;51.450;-0.240;2022-12-31T19:50:25;13.70;99.90
22838;DHT22;11585;51.450;-0.240;2022-12-31T19:52:54;13.70;99.90
22838;DHT22;11585;51.450;-0.240;2022-12-31T19:55:22;13.70;99.90
22838;DHT22;11585;51.450;-0.240;2022-12-31T19:57:49;13.70;99.90
22838;DHT22;11585;51.450;-0.240;2022-12-31T20:00:16;13.70;99.90
22838;DHT22;11585;51.450;-0.240;2022-12-31T20:02:46;13.70;99.90
22838;DHT22;11585;51.450;-0.240;2022-12-31T20:08:36;13.80;99.90
22838;DHT22;11585;51.450;-0.240;2022-12-31T20:11:20;13.80;99.90
22838;DHT22;11585;51.450;-0.240;2022-12-31T20:13:58;13.70;99.90
22838;DHT22;11585;51.450;-0.240;2022-12-31T20:16:25;13.80;99.90
22838;DHT22;11585;51.450;-0.240;2022-12-31T20:18:51;13.70;99.90
22838;DHT22;11585;51.450;-0.240;2022-12-31T20:21:20;13.80;99.90
22838;DHT22;11585;51.450;-0.240;2022-12-31T20:23:47;13.80;99.90
22838;DHT22;11585;51.450;-0.240;2022-12-31T20:29:36;13.80;99.90
22838;DHT22;11585;51.450;-0.240;2022-12-31T20:32:02;13.80;99.90
22838;DHT22;11585;51.450;-0.240;2022-12-31T20:37:50;13.90;99.90
22838;DHT22;11585;51.450;-0.240;2022-12-31T20:40:16;13.80;99.90
22838;DHT22;11585;51.450;-0.240;2022-12-31T20:42:42;13.10;99.90
22838;DHT22;11585;51.450;-0.240;2022-12-31T20:48:30;13.80;99.90
22838;DHT22;11585;51.450;-0.240;2022-12-31T20:50:57;13.80;99.90
22838;DHT22;11585;51.450;-0.240;2022-12-31T20:53:23;13.80;99.90
22838;DHT22;11585;51.450;-0.240;2022-12-31T20:59:11;13.80;99.90
22838;DHT22;11585;51.450;-0.240;2022-12-31T21:01:40;13.70;99.90
22838;DHT22;11585;51.450;-0.240;2022-12-31T21:04:05;13.80;99.90
22838;DHT22;11585;51.450;-0.240;2022-12-31T21:09:53;13.90;99.90
22838;DHT22;11585;51.450;-0.240;2022-12-31T21:15:41;13.80;99.90
22838;DHT22;11585;51.450;-0.240;2022-12-31T21:18:07;13.80;99.90
22838;DHT22;11585;51.450;-0.240;2022-12-31T21:20:33;13.10;99.90
22838;DHT22;11585;51.450;-0.240;2022-12-31T21:22:59;13.70;99.90
22838;DHT22;11585;51.450;-0.240;2022-12-31T21:31:39;13.80;99.90
22838;DHT22;11585;51.450;-0.240;2022-12-31T21:37:09;13.70;99.90
22838;DHT22;11585;51.450;-0.240;2022-12-31T21:39:35;13.00;99.90
22838;DHT22;11585;51.450;-0.240;2022-12-31T21:42:01;13.70;99.90
22838;DHT22;11585;51.450;-0.240;2022-12-31T21:44:47;13.70;99.90
22838;DHT22;11585;51.450;-0.240;2022-12-31T21:47:13;13.70;99.90
22838;DHT22;11585;51.450;-0.240;2022-12-31T21:49:57;13.70;99.90
22838;DHT22;11585;51.450;-0.240;2022-12-31T21:52:23;13.80;99.90
22838;DHT22;11585;51.450;-0.240;2022-12-31T21:55:02;13.70;99.90
22838;DHT22;11585;51.450;-0.240;2022-12-31T21:57:49;13.70;99.90
22838;DHT22;11585;51.450;-0.240;2022-12-31T22:00:15;13.60;99.90
22838;DHT22;11585;51.450;-0.240;2022-12-31T22:03:00;13.60;99.90
22838;DHT22;11585;51.450;-0.240;2022-12-31T22:06:08;13.00;99.90
22838;DHT22;11585;51.450;-0.240;2022-12-31T22:08:38;13.60;99.90
22838;DHT22;11585;51.450;-0.240;2022-12-31T22:11:04;13.60;99.90
22838;DHT22;11585;51.450;-0.240;2022-12-31T22:13:31;13.60;99.90
22838;DHT22;11585;51.450;-0.240;2022-12-31T22:16:16;13.60;99.90
22838;DHT22;11585;51.450;-0.240;2022-12-31T22:18:44;13.60;99.90
22838;DHT22;11585;51.450;-0.240;2022-12-31T22:21:16;13.60;99.90
22838;DHT22;11585;51.450;-0.240;2022-12-31T22:23:43;13.60;99.90
22838;DHT22;11585;51.450;-0.240;2022-12-31T22:29:12;13.10;99.90
22838;DHT22;11585;51.450;-0.240;2022-12-31T22:31:38;13.60;99.90
22838;DHT22;11585;51.450;-0.240;2022-12-31T22:34:04;13.60;99.90
22838;DHT22;11585;51.450;-0.240;2022-12-31T22:39:52;13.60;99.90
22838;DHT22;11585;51.450;-0.240;2022-12-31T22:42:18;13.60;99.90
22838;DHT22;11585;51.450;-0.240;2022-12-31T22:48:06;13.60;99.90
22838;DHT22;11585;51.450;-0.240;2022-12-31T22:50:32;13.60;99.90
22838;DHT22;11585;51.450;-0.240;2022-12-31T22:53:00;13.60;99.90
22838;DHT22;11585;51.450;-0.240;2022-12-31T22:55:46;13.60;99.90
22838;DHT22;11585;51.450;-0.240;2022-12-31T22:58:12;13.60;99.90
22838;DHT22;11585;51.450;-0.240;2022-12-31T23:00:39;13.60;99.90
22838;DHT22;11585;51.450;-0.240;2022-12-31T23:03:05;13.50;99.90
22838;DHT22;11585;51.450;-0.240;2022-12-31T23:12:16;13.60;99.90
22838;DHT22;11585;51.450;-0.240;2022-12-31T23:14:43;13.50;99.90
22838;DHT22;11585;51.450;-0.240;2022-12-31T23:17:27;13.50;99.90
22838;DHT22;11585;51.450;-0.240;2022-12-31T23:20:21;13.50;99.90
22838;DHT22;11585;51.450;-0.240;2022-12-31T23:23:07;13.60;99.90
22838;DHT22;11585;51.450;-0.240;2022-12-31T23:25:59;13.50;99.90
22838;DHT22;11585;51.450;-0.240;2022-12-31T23:28:25;13.50;99.90